sensor_id;sensor_type;location;lat;lon;timestamp;P1;P2;P0
82823;PMS5003;72575;46.834;-71.234;2023-12-07T00:00:29;19.1;17.8;8.9
82823;PMS5003;72575;46.834;-71.234;2023-12-07T00:02:55;15.77;14.36;7
82823;PMS5003;72575;46.834;-71.234;2023-12-07T00:05:22;13.95;13.95;7.29
82823;PMS5003;72575;46.834;-71.234;2023-12-07T00:07:46;12.9;12.52;7.19
82823;PMS5003;72575;46.834;-71.234;2023-12-07T00:10:12;11.33;10.29;5.86
82823;PMS5003;72575;46.834;-71.234;2023-12-07T00:12:36;16.86;14.76;6.95
82823;PMS5003;72575;46.834;-71.234;2023-12-07T00:15:05;13.14;11;7.76
82823;PMS5003;72575;46.834;-71.234;2023-12-07T00:17:30;15.52;14;8.05
82823;PMS5003;72575;46.834;-71.234;2023-12-07T00:19:56;12.73;12.5;7.45
82823;PMS5003;72575;46.834;-71.234;2023-12-07T00:22:21;11.43;9.76;6.76
82823;PMS5003;72575;46.834;-71.234;2023-12-07T00:24:46;16.19;14.33;8.05
82823;PMS5003;72575;46.834;-71.234;2023-12-07T00:27:12;18.48;15.14;8.05
82823;PMS5003;72575;46.834;-71.234;2023-12-07T00:29:38;18.1;16;9.5
82823;PMS5003;72575;46.834;-71.234;2023-12-07T00:32:03;19.33;17.29;9
82823;PMS5003;72575;46.834;-71.234;2023-12-07T00:34:29;22.35;20.65;9.15
82823;PMS5003;72575;46.834;-71.234;2023-12-07T00:36:55;22.05;20.71;10.76
82823;PMS5003;72575;46.834;-71.234;2023-12-07T00:39:20;17.1;14.67;9.33
82823;PMS5003;72575;46.834;-71.234;2023-12-07T00:41:45;20.24;19.29;11.62
82823;PMS5003;72575;46.834;-71.234;2023-12-07T00:44:09;18.38;16.57;8.71
82823;PMS5003;72575;46.834;-71.234;2023-12-07T00:46:35;19.57;18.71;10.48
82823;PMS5003;72575;46.834;-71.234;2023-12-07T00:49:01;25.05;20;12.62
82823;PMS5003;72575;46.834;-71.234;2023-12-07T00:51:24;33.1;30.9;12.9
82823;PMS5003;72575;46.834;-71.234;2023-12-07T00:53:53;18.45;17.14;11.09
82823;PMS5003;72575;46.834;-71.234;2023-12-07T00:56:18;18.33;17.33;10
82823;PMS5003;72575;46.834;-71.234;2023-12-07T00:58:43;23.86;20.52;11.9
82823;PMS5003;72575;46.834;-71.234;2023-12-07T01:01:07;34;31.9;15.45
82823;PMS5003;72575;46.834;-71.234;2023-12-07T01:03:33;43.85;39.15;18.5
82823;PMS5003;72575;46.834;-71.234;2023-12-07T01:05:58;32;29.43;16.05
82823;PMS5003;72575;46.834;-71.234;2023-12-07T01:08:24;48.15;43.05;22.4
82823;PMS5003;72575;46.834;-71.234;2023-12-07T01:10:51;42.68;38.18;24.14
82823;PMS5003;72575;46.834;-71.234;2023-12-07T01:13:14;47.62;40.24;21.86
82823;PMS5003;72575;46.834;-71.234;2023-12-07T01:15:40;39.75;36.3;19.75
82823;PMS5003;72575;46.834;-71.234;2023-12-07T01:18:07;50.79;45.16;22.21
82823;PMS5003;72575;46.834;-71.234;2023-12-07T01:20:32;48.25;42.55;25.5
82823;PMS5003;72575;46.834;-71.234;2023-12-07T01:22:56;50.3;45.15;24.15
82823;PMS5003;72575;46.834;-71.234;2023-12-07T01:25:34;68.05;55.29;29.67
82823;PMS5003;72575;46.834;-71.234;2023-12-07T01:28:00;57.95;50.16;25.74
82823;PMS5003;72575;46.834;-71.234;2023-12-07T01:30:27;53.3;45.7;23.1
82823;PMS5003;72575;46.834;-71.234;2023-12-07T01:32:51;59.48;48.33;27.95
82823;PMS5003;72575;46.834;-71.234;2023-12-07T01:35:19;51.42;44.37;24.26
82823;PMS5003;72575;46.834;-71.234;2023-12-07T01:37:44;56.83;47.67;26.83
82823;PMS5003;72575;46.834;-71.234;2023-12-07T01:40:08;65.57;50;28.33
82823;PMS5003;72575;46.834;-71.234;2023-12-07T01:42:35;55.74;47.53;30.21
82823;PMS5003;72575;46.834;-71.234;2023-12-07T01:45:00;54.75;47.4;28.8
82823;PMS5003;72575;46.834;-71.234;2023-12-07T01:47:26;58.05;47.25;29.1
82823;PMS5003;72575;46.834;-71.234;2023-12-07T01:49:50;62.19;51.33;30.1
82823;PMS5003;72575;46.834;-71.234;2023-12-07T01:52:16;65.75;53.45;29.05
82823;PMS5003;72575;46.834;-71.234;2023-12-07T01:54:41;61.76;51.05;29.62
82823;PMS5003;72575;46.834;-71.234;2023-12-07T01:57:08;57.25;48.45;28.85
82823;PMS5003;72575;46.834;-71.234;2023-12-07T01:59:34;60.05;49.29;28.76
82823;PMS5003;72575;46.834;-71.234;2023-12-07T02:01:59;55.21;48.32;26.05
82823;PMS5003;72575;46.834;-71.234;2023-12-07T02:04:25;67.2;54;27.55
82823;PMS5003;72575;46.834;-71.234;2023-12-07T02:06:49;52.21;47.58;26.68
82823;PMS5003;72575;46.834;-71.234;2023-12-07T02:09:13;66.4;53.8;28.85
82823;PMS5003;72575;46.834;-71.234;2023-12-07T02:11:40;56.95;44.74;24
82823;PMS5003;72575;46.834;-71.234;2023-12-07T02:14:08;39.9;35.3;17.55
82823;PMS5003;72575;46.834;-71.234;2023-12-07T02:16:35;29.95;26.55;16.45
82823;PMS5003;72575;46.834;-71.234;2023-12-07T02:19:01;29.62;24.62;13.9
82823;PMS5003;72575;46.834;-71.234;2023-12-07T02:21:27;27.9;24.95;14.15
82823;PMS5003;72575;46.834;-71.234;2023-12-07T02:23:51;22.67;21.29;13.48
82823;PMS5003;72575;46.834;-71.234;2023-12-07T02:26:16;22.29;20.14;12.95
82823;PMS5003;72575;46.834;-71.234;2023-12-07T02:28:42;17.9;16.48;9.95
82823;PMS5003;72575;46.834;-71.234;2023-12-07T02:31:07;25.45;21.4;9.65
82823;PMS5003;72575;46.834;-71.234;2023-12-07T02:33:33;23.77;15.18;7.64
82823;PMS5003;72575;46.834;-71.234;2023-12-07T02:35:59;23.7;21.5;10.9
82823;PMS5003;72575;46.834;-71.234;2023-12-07T02:38:23;22.29;20.76;11.05
82823;PMS5003;72575;46.834;-71.234;2023-12-07T02:40:48;18.14;14.95;9.71
82823;PMS5003;72575;46.834;-71.234;2023-12-07T02:43:14;16.24;13.48;9.48
82823;PMS5003;72575;46.834;-71.234;2023-12-07T02:45:38;18;15.62;9.52
82823;PMS5003;72575;46.834;-71.234;2023-12-07T02:48:04;16.29;13.19;7.67
82823;PMS5003;72575;46.834;-71.234;2023-12-07T02:50:31;15.48;14.29;8.52
82823;PMS5003;72575;46.834;-71.234;2023-12-07T02:52:56;17.57;15.33;7.86
82823;PMS5003;72575;46.834;-71.234;2023-12-07T02:55:22;19.52;18;8.24
82823;PMS5003;72575;46.834;-71.234;2023-12-07T02:57:45;17.05;13.48;8.43
82823;PMS5003;72575;46.834;-71.234;2023-12-07T03:00:11;21.81;20.05;11
82823;PMS5003;72575;46.834;-71.234;2023-12-07T03:02:40;25.52;22.86;11.71
82823;PMS5003;72575;46.834;-71.234;2023-12-07T03:05:01;23.71;21.1;9.1
82823;PMS5003;72575;46.834;-71.234;2023-12-07T03:07:30;19.09;14.36;9.14
82823;PMS5003;72575;46.834;-71.234;2023-12-07T03:09:54;10.71;10.24;6.76
82823;PMS5003;72575;46.834;-71.234;2023-12-07T03:12:18;10.95;10.48;6
82823;PMS5003;72575;46.834;-71.234;2023-12-07T03:14:43;12.14;12.14;6.24
82823;PMS5003;72575;46.834;-71.234;2023-12-07T03:17:10;18;15.05;8.24
82823;PMS5003;72575;46.834;-71.234;2023-12-07T03:19:37;11.86;10.62;4.86
82823;PMS5003;72575;46.834;-71.234;2023-12-07T03:22:00;19.67;15.33;7.71
82823;PMS5003;72575;46.834;-71.234;2023-12-07T03:24:25;19;17.77;11.27
82823;PMS5003;72575;46.834;-71.234;2023-12-07T03:26:53;25.57;24.81;14.33
82823;PMS5003;72575;46.834;-71.234;2023-12-07T03:29:17;25;24.6;15.45
82823;PMS5003;72575;46.834;-71.234;2023-12-07T03:31:42;24.62;24.05;11.9
82823;PMS5003;72575;46.834;-71.234;2023-12-07T03:34:07;39.05;36.85;20.55
82823;PMS5003;72575;46.834;-71.234;2023-12-07T03:36:34;18.05;17.29;10.57
82823;PMS5003;72575;46.834;-71.234;2023-12-07T03:38:57;35.05;31.32;17.42
82823;PMS5003;72575;46.834;-71.234;2023-12-07T03:41:26;17.86;16.29;9.43
82823;PMS5003;72575;46.834;-71.234;2023-12-07T03:43:49;31.75;27.8;11.1
82823;PMS5003;72575;46.834;-71.234;2023-12-07T03:46:16;24;22.55;11.65
82823;PMS5003;72575;46.834;-71.234;2023-12-07T03:48:41;24.55;23.1;18.15
82823;PMS5003;72575;46.834;-71.234;2023-12-07T03:51:04;27.2;23.15;17.8
82823;PMS5003;72575;46.834;-71.234;2023-12-07T03:53:30;35.94;34.06;21.44
82823;PMS5003;72575;46.834;-71.234;2023-12-07T03:55:57;43.72;41.61;23.83
82823;PMS5003;72575;46.834;-71.234;2023-12-07T03:58:22;43.8;40.15;23.9
82823;PMS5003;72575;46.834;-71.234;2023-12-07T04:00:47;30.65;28.35;16.3
82823;PMS5003;72575;46.834;-71.234;2023-12-07T04:03:14;49.95;44.57;24.62
82823;PMS5003;72575;46.834;-71.234;2023-12-07T04:05:39;34;30.45;18.85
82823;PMS5003;72575;46.834;-71.234;2023-12-07T04:08:04;40.95;39.8;23.05
82823;PMS5003;72575;46.834;-71.234;2023-12-07T04:10:29;39.11;33.32;19.74
82823;PMS5003;72575;46.834;-71.234;2023-12-07T04:12:56;47.37;41.32;20.58
82823;PMS5003;72575;46.834;-71.234;2023-12-07T04:15:21;41.29;39;23.1
82823;PMS5003;72575;46.834;-71.234;2023-12-07T04:17:46;82;59.38;32.24
82823;PMS5003;72575;46.834;-71.234;2023-12-07T04:20:11;58.5;49.65;29.5
82823;PMS5003;72575;46.834;-71.234;2023-12-07T04:22:36;55.25;47.85;29.35
82823;PMS5003;72575;46.834;-71.234;2023-12-07T04:25:01;53.68;47.32;24.95
82823;PMS5003;72575;46.834;-71.234;2023-12-07T04:27:28;51.53;42.89;24.16
82823;PMS5003;72575;46.834;-71.234;2023-12-07T04:29:52;57.94;48.33;26.17
82823;PMS5003;72575;46.834;-71.234;2023-12-07T04:32:18;52.26;43.47;26.63
82823;PMS5003;72575;46.834;-71.234;2023-12-07T04:34:43;38.05;34.55;21.8
82823;PMS5003;72575;46.834;-71.234;2023-12-07T04:37:08;44.5;39.1;21.1
82823;PMS5003;72575;46.834;-71.234;2023-12-07T04:39:36;42.2;38.4;24.95
82823;PMS5003;72575;46.834;-71.234;2023-12-07T04:42:00;70.6;54.9;32.05
82823;PMS5003;72575;46.834;-71.234;2023-12-07T04:44:24;52.16;46.26;26.42
82823;PMS5003;72575;46.834;-71.234;2023-12-07T04:46:51;52.9;44.95;26.8
82823;PMS5003;72575;46.834;-71.234;2023-12-07T04:49:15;63.32;52.53;28.74
82823;PMS5003;72575;46.834;-71.234;2023-12-07T04:51:42;64.3;53;32.05
82823;PMS5003;72575;46.834;-71.234;2023-12-07T04:54:06;62.1;48.65;29.2
82823;PMS5003;72575;46.834;-71.234;2023-12-07T04:56:32;64.63;53.21;30.26
82823;PMS5003;72575;46.834;-71.234;2023-12-07T04:58:57;64.7;53.95;29.75
82823;PMS5003;72575;46.834;-71.234;2023-12-07T05:01:24;44.95;41.05;24.5
82823;PMS5003;72575;46.834;-71.234;2023-12-07T05:03:47;57.28;48;26.83
82823;PMS5003;72575;46.834;-71.234;2023-12-07T05:06:13;49.4;43.65;23.05
82823;PMS5003;72575;46.834;-71.234;2023-12-07T05:08:40;45;42.42;22.74
82823;PMS5003;72575;46.834;-71.234;2023-12-07T05:11:04;45;40.42;20.42
82823;PMS5003;72575;46.834;-71.234;2023-12-07T05:13:30;40.47;35.84;19.79
82823;PMS5003;72575;46.834;-71.234;2023-12-07T05:15:56;43.5;38.35;21.35
82823;PMS5003;72575;46.834;-71.234;2023-12-07T05:18:22;42.95;38.6;22.9
82823;PMS5003;72575;46.834;-71.234;2023-12-07T05:20:46;48.76;44.19;24.14
82823;PMS5003;72575;46.834;-71.234;2023-12-07T05:23:12;59.73;46.95;25.68
82823;PMS5003;72575;46.834;-71.234;2023-12-07T05:25:38;38.32;35;18.79
82823;PMS5003;72575;46.834;-71.234;2023-12-07T05:28:03;41.35;35.85;20.35
82823;PMS5003;72575;46.834;-71.234;2023-12-07T05:30:29;41.1;38.8;20.35
82823;PMS5003;72575;46.834;-71.234;2023-12-07T05:32:55;40.4;37.45;21.55
82823;PMS5003;72575;46.834;-71.234;2023-12-07T05:35:19;33.15;30.95;18.55
82823;PMS5003;72575;46.834;-71.234;2023-12-07T05:37:43;32.85;31.4;18.8
82823;PMS5003;72575;46.834;-71.234;2023-12-07T05:40:09;41.42;38.21;20.05
82823;PMS5003;72575;46.834;-71.234;2023-12-07T05:42:34;39.2;34.1;17.8
82823;PMS5003;72575;46.834;-71.234;2023-12-07T05:44:59;41.15;35.25;22.6
82823;PMS5003;72575;46.834;-71.234;2023-12-07T05:47:25;36.4;31.1;19.7
82823;PMS5003;72575;46.834;-71.234;2023-12-07T05:49:51;40.72;38.11;21.17
82823;PMS5003;72575;46.834;-71.234;2023-12-07T05:52:16;38.9;34.55;21.5
82823;PMS5003;72575;46.834;-71.234;2023-12-07T05:54:42;42.05;40.55;21.35
82823;PMS5003;72575;46.834;-71.234;2023-12-07T05:57:07;35.81;30.48;19.19
82823;PMS5003;72575;46.834;-71.234;2023-12-07T05:59:36;54.62;47.24;24.19
82823;PMS5003;72575;46.834;-71.234;2023-12-07T06:01:58;60.74;49.74;28.74
82823;PMS5003;72575;46.834;-71.234;2023-12-07T06:04:24;50.85;45.65;24.8
82823;PMS5003;72575;46.834;-71.234;2023-12-07T06:06:48;56.95;48.26;28.32
82823;PMS5003;72575;46.834;-71.234;2023-12-07T06:09:14;53.3;44.25;25.3
82823;PMS5003;72575;46.834;-71.234;2023-12-07T06:11:38;48.25;44.35;22.65
82823;PMS5003;72575;46.834;-71.234;2023-12-07T06:14:06;51.67;45.33;25.57
82823;PMS5003;72575;46.834;-71.234;2023-12-07T06:16:32;41.11;38.94;22.44
82823;PMS5003;72575;46.834;-71.234;2023-12-07T06:18:56;40.39;37.61;21.67
82823;PMS5003;72575;46.834;-71.234;2023-12-07T06:21:22;32.7;28.75;16.95
82823;PMS5003;72575;46.834;-71.234;2023-12-07T06:23:46;53.05;46.45;24.2
82823;PMS5003;72575;46.834;-71.234;2023-12-07T06:26:12;36.86;35;19.71
82823;PMS5003;72575;46.834;-71.234;2023-12-07T06:28:37;29.5;27.75;14.95
82823;PMS5003;72575;46.834;-71.234;2023-12-07T06:31:04;35.33;29.86;13.86
82823;PMS5003;72575;46.834;-71.234;2023-12-07T06:33:30;30;27.5;15.15
82823;PMS5003;72575;46.834;-71.234;2023-12-07T06:35:53;39.95;36.85;22.9
82823;PMS5003;72575;46.834;-71.234;2023-12-07T06:38:21;34.6;29.55;18.45
82823;PMS5003;72575;46.834;-71.234;2023-12-07T06:40:45;19.15;17.8;8.95
82823;PMS5003;72575;46.834;-71.234;2023-12-07T06:43:11;19.3;15.05;10.2
82823;PMS5003;72575;46.834;-71.234;2023-12-07T06:45:35;36.5;29.2;15.55
82823;PMS5003;72575;46.834;-71.234;2023-12-07T06:48:03;26.86;24.71;14.1
82823;PMS5003;72575;46.834;-71.234;2023-12-07T06:50:26;38.05;34.95;21.1
82823;PMS5003;72575;46.834;-71.234;2023-12-07T06:52:52;61.05;53.24;31.33
82823;PMS5003;72575;46.834;-71.234;2023-12-07T06:55:19;42.5;35.94;19.67
82823;PMS5003;72575;46.834;-71.234;2023-12-07T06:57:44;41.39;36.67;17.83
82823;PMS5003;72575;46.834;-71.234;2023-12-07T07:00:08;35.11;31.05;17.37
82823;PMS5003;72575;46.834;-71.234;2023-12-07T07:02:34;38.94;36.33;19.89
82823;PMS5003;72575;46.834;-71.234;2023-12-07T07:05:00;35.65;34.5;18.75
82823;PMS5003;72575;46.834;-71.234;2023-12-07T07:07:24;34.05;32.35;19.55
82823;PMS5003;72575;46.834;-71.234;2023-12-07T07:09:52;39.21;36.37;20.47
82823;PMS5003;72575;46.834;-71.234;2023-12-07T07:12:15;64.95;49.1;25.7
82823;PMS5003;72575;46.834;-71.234;2023-12-07T07:14:42;47;41.35;22.5
82823;PMS5003;72575;46.834;-71.234;2023-12-07T07:17:05;49.71;46.14;24.57
82823;PMS5003;72575;46.834;-71.234;2023-12-07T07:19:32;64.22;50.67;27.39
82823;PMS5003;72575;46.834;-71.234;2023-12-07T07:21:58;56.5;49.6;27.8
82823;PMS5003;72575;46.834;-71.234;2023-12-07T07:24:23;42.05;39.65;23.3
82823;PMS5003;72575;46.834;-71.234;2023-12-07T07:26:50;49.05;44.37;26.05
82823;PMS5003;72575;46.834;-71.234;2023-12-07T07:29:12;47.63;42.32;20.89
82823;PMS5003;72575;46.834;-71.234;2023-12-07T07:31:38;51.4;46.5;22.15
82823;PMS5003;72575;46.834;-71.234;2023-12-07T07:34:04;49;44.95;23.9
82823;PMS5003;72575;46.834;-71.234;2023-12-07T07:36:28;30.63;28.21;14.21
82823;PMS5003;72575;46.834;-71.234;2023-12-07T07:38:57;42.19;34.81;21.29
82823;PMS5003;72575;46.834;-71.234;2023-12-07T07:41:23;36.1;32.85;14.55
82823;PMS5003;72575;46.834;-71.234;2023-12-07T07:43:48;61.18;51.45;28.73
82823;PMS5003;72575;46.834;-71.234;2023-12-07T07:46:13;62.4;52.85;27
82823;PMS5003;72575;46.834;-71.234;2023-12-07T07:48:36;55.5;46.15;23.45
82823;PMS5003;72575;46.834;-71.234;2023-12-07T07:51:03;66.75;51.75;26
82823;PMS5003;72575;46.834;-71.234;2023-12-07T07:53:28;51.2;45.9;23.9
82823;PMS5003;72575;46.834;-71.234;2023-12-07T07:55:54;66.14;50.9;29.67
82823;PMS5003;72575;46.834;-71.234;2023-12-07T07:58:20;55.11;46.21;26.26
82823;PMS5003;72575;46.834;-71.234;2023-12-07T08:00:46;61.75;50.9;28.05
82823;PMS5003;72575;46.834;-71.234;2023-12-07T08:03:10;46.45;37.9;21.65
82823;PMS5003;72575;46.834;-71.234;2023-12-07T08:05:36;41.65;37.55;20.9
82823;PMS5003;72575;46.834;-71.234;2023-12-07T08:08:02;49.3;45.6;22.65
82823;PMS5003;72575;46.834;-71.234;2023-12-07T08:10:26;53.43;44.24;26.24
82823;PMS5003;72575;46.834;-71.234;2023-12-07T08:12:53;51;46;24.14
82823;PMS5003;72575;46.834;-71.234;2023-12-07T08:15:18;55;46.67;23.14
82823;PMS5003;72575;46.834;-71.234;2023-12-07T08:17:44;41.05;33.85;20
82823;PMS5003;72575;46.834;-71.234;2023-12-07T08:20:10;55.19;45.24;21.71
82823;PMS5003;72575;46.834;-71.234;2023-12-07T08:22:33;35.1;32.45;16.8
82823;PMS5003;72575;46.834;-71.234;2023-12-07T08:24:59;46.16;39.63;18.63
82823;PMS5003;72575;46.834;-71.234;2023-12-07T08:27:31;53.95;45.89;26.89
82823;PMS5003;72575;46.834;-71.234;2023-12-07T08:29:58;37.1;34.48;19
82823;PMS5003;72575;46.834;-71.234;2023-12-07T08:32:22;23.33;21.78;12.56
82823;PMS5003;72575;46.834;-71.234;2023-12-07T08:34:47;29.11;26.84;13.26
82823;PMS5003;72575;46.834;-71.234;2023-12-07T08:37:14;16.3;15.4;9.4
82823;PMS5003;72575;46.834;-71.234;2023-12-07T08:39:38;17.35;16.65;8.05
82823;PMS5003;72575;46.834;-71.234;2023-12-07T08:42:04;19.16;18.16;9.05
82823;PMS5003;72575;46.834;-71.234;2023-12-07T08:44:31;22.65;21.6;11.6
82823;PMS5003;72575;46.834;-71.234;2023-12-07T08:46:54;10.65;10.2;6.5
82823;PMS5003;72575;46.834;-71.234;2023-12-07T08:49:20;17.3;16.1;9
82823;PMS5003;72575;46.834;-71.234;2023-12-07T08:51:47;18.25;17.45;9.25
82823;PMS5003;72575;46.834;-71.234;2023-12-07T08:54:12;16.5;15.4;9.55
82823;PMS5003;72575;46.834;-71.234;2023-12-07T08:56:36;16.1;15.35;11.05
82823;PMS5003;72575;46.834;-71.234;2023-12-07T08:59:03;19.5;17.22;9.39
82823;PMS5003;72575;46.834;-71.234;2023-12-07T09:17:49;23.57;19.29;10.86
82823;PMS5003;72575;46.834;-71.234;2023-12-07T09:18:11;20.19;20.19;11.67
82823;PMS5003;72575;46.834;-71.234;2023-12-07T09:18:34;36.05;28.76;14.1
82823;PMS5003;72575;46.834;-71.234;2023-12-07T09:18:52;32.57;25.1;15.57
82823;PMS5003;72575;46.834;-71.234;2023-12-07T09:19:09;31.95;28.64;15.36
82823;PMS5003;72575;46.834;-71.234;2023-12-07T09:19:29;27.19;26.76;13.76
82823;PMS5003;72575;46.834;-71.234;2023-12-07T09:19:38;24.62;24.29;12.48
82823;PMS5003;72575;46.834;-71.234;2023-12-07T09:20:45;26.29;23.33;15
82823;PMS5003;72575;46.834;-71.234;2023-12-07T09:23:12;30.55;28.25;16.35
82823;PMS5003;72575;46.834;-71.234;2023-12-07T09:25:35;29.72;28.78;15.5
82823;PMS5003;72575;46.834;-71.234;2023-12-07T09:28:02;40.65;36.1;17.9
82823;PMS5003;72575;46.834;-71.234;2023-12-07T09:30:27;33.44;29.94;16.22
82823;PMS5003;72575;46.834;-71.234;2023-12-07T09:32:54;28.86;22.29;11.48
82823;PMS5003;72575;46.834;-71.234;2023-12-07T09:35:18;29.53;26;14.05
82823;PMS5003;72575;46.834;-71.234;2023-12-07T09:37:42;31.16;27.05;12.58
82823;PMS5003;72575;46.834;-71.234;2023-12-07T09:40:14;34.61;30.22;16.5
82823;PMS5003;72575;46.834;-71.234;2023-12-07T09:42:35;30.65;27.05;15.75
82823;PMS5003;72575;46.834;-71.234;2023-12-07T09:44:59;32.95;28.4;15.35
82823;PMS5003;72575;46.834;-71.234;2023-12-07T09:47:25;30.45;27.7;16.8
82823;PMS5003;72575;46.834;-71.234;2023-12-07T09:49:50;24.86;24.05;14.14
82823;PMS5003;72575;46.834;-71.234;2023-12-07T09:52:17;16.45;12.25;7.15
82823;PMS5003;72575;46.834;-71.234;2023-12-07T09:54:42;7.8;7.45;4.5
82823;PMS5003;72575;46.834;-71.234;2023-12-07T09:57:06;7.8;5.3;3.6
82823;PMS5003;72575;46.834;-71.234;2023-12-07T09:59:31;11.63;11.53;3.42
82823;PMS5003;72575;46.834;-71.234;2023-12-07T10:01:58;7.95;7.6;4.05
82823;PMS5003;72575;46.834;-71.234;2023-12-07T10:04:23;7.9;5.95;3.65
82823;PMS5003;72575;46.834;-71.234;2023-12-07T10:06:49;18.76;15.38;9.62
82823;PMS5003;72575;46.834;-71.234;2023-12-07T10:09:15;14.35;11.6;8
82823;PMS5003;72575;46.834;-71.234;2023-12-07T10:11:39;16.75;16.75;9.7
82823;PMS5003;72575;46.834;-71.234;2023-12-07T10:14:06;17.1;16.05;10.2
82823;PMS5003;72575;46.834;-71.234;2023-12-07T10:16:29;18.7;15.9;8.3
82823;PMS5003;72575;46.834;-71.234;2023-12-07T10:18:53;16.85;15.9;10.75
82823;PMS5003;72575;46.834;-71.234;2023-12-07T10:21:23;20.6;18.5;9.1
82823;PMS5003;72575;46.834;-71.234;2023-12-07T10:23:45;16.29;15.29;8.14
82823;PMS5003;72575;46.834;-71.234;2023-12-07T10:26:11;19.65;18.7;12.45
82823;PMS5003;72575;46.834;-71.234;2023-12-07T10:28:36;18;16.5;9.95
82823;PMS5003;72575;46.834;-71.234;2023-12-07T10:31:02;14.2;14.2;10
82823;PMS5003;72575;46.834;-71.234;2023-12-07T10:33:28;21.65;19.9;15.25
82823;PMS5003;72575;46.834;-71.234;2023-12-07T10:35:53;20.7;18.75;14.95
82823;PMS5003;72575;46.834;-71.234;2023-12-07T10:38:16;38.5;37.6;32.25
82823;PMS5003;72575;46.834;-71.234;2023-12-07T10:40:44;27.29;25.43;19.14
82823;PMS5003;72575;46.834;-71.234;2023-12-07T10:43:10;16.75;14.75;8.6
82823;PMS5003;72575;46.834;-71.234;2023-12-07T10:45:34;13;12.1;7
82823;PMS5003;72575;46.834;-71.234;2023-12-07T10:48:00;15.1;13.2;8
82823;PMS5003;72575;46.834;-71.234;2023-12-07T10:50:24;30.1;27.75;16.95
82823;PMS5003;72575;46.834;-71.234;2023-12-07T10:52:51;9;8.6;5.1
82823;PMS5003;72575;46.834;-71.234;2023-12-07T10:55:16;7.35;7;4
82823;PMS5003;72575;46.834;-71.234;2023-12-07T10:57:42;8.4;7.7;3.3
82823;PMS5003;72575;46.834;-71.234;2023-12-07T11:00:06;12.6;10.85;6.4
82823;PMS5003;72575;46.834;-71.234;2023-12-07T11:02:33;10.4;9.35;3.95
82823;PMS5003;72575;46.834;-71.234;2023-12-07T11:04:57;14.15;13.45;7.3
82823;PMS5003;72575;46.834;-71.234;2023-12-07T11:07:32;13;11.8;7.55
82823;PMS5003;72575;46.834;-71.234;2023-12-07T11:09:51;23.81;21.52;7.52
82823;PMS5003;72575;46.834;-71.234;2023-12-07T11:12:17;12.1;11.6;5.5
82823;PMS5003;72575;46.834;-71.234;2023-12-07T11:14:44;17.76;16;9.24
82823;PMS5003;72575;46.834;-71.234;2023-12-07T11:17:07;20.35;16.85;7.5
82823;PMS5003;72575;46.834;-71.234;2023-12-07T11:19:47;15.55;12.85;5.65
82823;PMS5003;72575;46.834;-71.234;2023-12-07T11:21:58;15;14;5.89
82823;PMS5003;72575;46.834;-71.234;2023-12-07T11:24:25;22.48;20.43;7.86
82823;PMS5003;72575;46.834;-71.234;2023-12-07T11:26:48;21.25;17.8;11.4
82823;PMS5003;72575;46.834;-71.234;2023-12-07T11:29:14;22.8;19.9;9.7
82823;PMS5003;72575;46.834;-71.234;2023-12-07T11:31:39;6.43;6.43;3.62
82823;PMS5003;72575;46.834;-71.234;2023-12-07T11:34:06;11.35;11.05;5.9
82823;PMS5003;72575;46.834;-71.234;2023-12-07T11:36:30;18.95;16.7;8.3
82823;PMS5003;72575;46.834;-71.234;2023-12-07T11:39:27;29.8;28.75;11.5
82823;PMS5003;72575;46.834;-71.234;2023-12-07T11:41:21;10.35;9.1;4.6
82823;PMS5003;72575;46.834;-71.234;2023-12-07T11:43:45;11.9;11.9;7.2
82823;PMS5003;72575;46.834;-71.234;2023-12-07T11:46:13;18.25;16.3;8.9
82823;PMS5003;72575;46.834;-71.234;2023-12-07T11:48:37;10.86;10.48;5.76
82823;PMS5003;72575;46.834;-71.234;2023-12-07T11:51:04;11.4;9.35;5.15
82823;PMS5003;72575;46.834;-71.234;2023-12-07T11:53:30;17.15;13.75;8.6
82823;PMS5003;72575;46.834;-71.234;2023-12-07T11:55:53;11.9;11.9;4.8
82823;PMS5003;72575;46.834;-71.234;2023-12-07T11:58:18;16.15;15.1;8.3
82823;PMS5003;72575;46.834;-71.234;2023-12-07T12:00:44;20.05;18.15;9.55
82823;PMS5003;72575;46.834;-71.234;2023-12-07T12:03:12;9.55;9.25;6.65
82823;PMS5003;72575;46.834;-71.234;2023-12-07T12:05:35;24.11;22;11.26
82823;PMS5003;72575;46.834;-71.234;2023-12-07T12:08:00;21;20.35;8.7
82823;PMS5003;72575;46.834;-71.234;2023-12-07T12:10:27;15.85;11.1;6.9
82823;PMS5003;72575;46.834;-71.234;2023-12-07T12:12:54;13.8;12.7;8.6
82823;PMS5003;72575;46.834;-71.234;2023-12-07T12:15:18;12.65;11.9;6.6
82823;PMS5003;72575;46.834;-71.234;2023-12-07T12:17:46;19;17.05;9.29
82823;PMS5003;72575;46.834;-71.234;2023-12-07T12:20:10;10.57;9.57;4.33
82823;PMS5003;72575;46.834;-71.234;2023-12-07T12:22:36;13.24;12.24;6.43
82823;PMS5003;72575;46.834;-71.234;2023-12-07T12:25:04;25.37;23.32;11.53
82823;PMS5003;72575;46.834;-71.234;2023-12-07T12:27:27;15;12.5;9.1
82823;PMS5003;72575;46.834;-71.234;2023-12-07T12:29:54;18.25;12.65;7.35
82823;PMS5003;72575;46.834;-71.234;2023-12-07T12:32:18;15.3;15.3;8.85
82823;PMS5003;72575;46.834;-71.234;2023-12-07T12:34:43;15.1;14.05;6.9
82823;PMS5003;72575;46.834;-71.234;2023-12-07T12:37:10;12.3;8.5;5.55
82823;PMS5003;72575;46.834;-71.234;2023-12-07T12:39:35;33.32;28.26;13.63
82823;PMS5003;72575;46.834;-71.234;2023-12-07T12:41:59;31;26.52;15.1
82823;PMS5003;72575;46.834;-71.234;2023-12-07T12:44:27;19.65;16.7;10
82823;PMS5003;72575;46.834;-71.234;2023-12-07T12:46:51;10.15;8.7;4.35
82823;PMS5003;72575;46.834;-71.234;2023-12-07T12:49:16;41.95;38;19.75
82823;PMS5003;72575;46.834;-71.234;2023-12-07T12:51:41;27.24;22.24;11.05
82823;PMS5003;72575;46.834;-71.234;2023-12-07T12:54:08;22.26;19.95;9.16
82823;PMS5003;72575;46.834;-71.234;2023-12-07T12:56:31;36.41;29.36;16.68
82823;PMS5003;72575;46.834;-71.234;2023-12-07T12:58:57;23.52;21;10.57
82823;PMS5003;72575;46.834;-71.234;2023-12-07T13:01:23;19.63;19;6.58
82823;PMS5003;72575;46.834;-71.234;2023-12-07T13:03:47;20.19;19.29;12.14
82823;PMS5003;72575;46.834;-71.234;2023-12-07T13:06:13;12;11.8;7.4
82823;PMS5003;72575;46.834;-71.234;2023-12-07T13:08:40;17.35;16.15;10
82823;PMS5003;72575;46.834;-71.234;2023-12-07T13:11:04;13.8;13.7;9.25
82823;PMS5003;72575;46.834;-71.234;2023-12-07T13:13:30;16.67;13.05;6.9
82823;PMS5003;72575;46.834;-71.234;2023-12-07T13:15:58;8.4;8.4;5.1
82823;PMS5003;72575;46.834;-71.234;2023-12-07T13:18:21;20.15;16.35;9.1
82823;PMS5003;72575;46.834;-71.234;2023-12-07T13:20:47;16.37;16.21;6.79
82823;PMS5003;72575;46.834;-71.234;2023-12-07T13:23:13;6.3;5.7;3.95
82823;PMS5003;72575;46.834;-71.234;2023-12-07T13:25:36;11.61;11.06;4
82823;PMS5003;72575;46.834;-71.234;2023-12-07T13:28:03;11.48;10.43;3
82823;PMS5003;72575;46.834;-71.234;2023-12-07T13:30:29;10.38;10.19;5.71
82823;PMS5003;72575;46.834;-71.234;2023-12-07T13:32:56;3.45;3;1.6
82823;PMS5003;72575;46.834;-71.234;2023-12-07T13:35:19;12.6;8.85;5.6